sensor_id;sensor_type;location;lat;lon;timestamp;temperature;humidity
2723;DHT22;1369;53.216;10.396;2023-04-24T00:01:13;13.50;99.90
2723;DHT22;1369;53.216;10.396;2023-04-24T00:03:39;13.50;99.90
2723;DHT22;1369;53.216;10.396;2023-04-24T00:06:05;13.40;99.90
2723;DHT22;1369;53.216;10.396;2023-04-24T00:08:32;13.40;99.90
2723;DHT22;1369;53.216;10.396;2023-04-24T00:11:01;13.30;99.90
2723;DHT22;1369;53.216;10.396;2023-04-24T00:13:26;13.20;99.90
2723;DHT22;1369;53.216;10.396;2023-04-24T00:15:54;13.20;99.90
2723;DHT22;1369;53.216;10.396;2023-04-24T00:18:19;13.10;99.90
2723;DHT22;1369;53.216;10.396;2023-04-24T00:20:45;13.10;99.90
2723;DHT22;1369;53.216;10.396;2023-04-24T00:23:12;13.10;99.90
2723;DHT22;1369;53.216;10.396;2023-04-24T00:25:38;13.10;99.90
2723;DHT22;1369;53.216;10.396;2023-04-24T00:28:03;13.00;99.90
2723;DHT22;1369;53.216;10.396;2023-04-24T00:30:29;12.90;99.90
2723;DHT22;1369;53.216;10.396;2023-04-24T00:32:54;12.80;99.90
2723;DHT22;1369;53.216;10.396;2023-04-24T00:35:20;12.70;99.90
2723;DHT22;1369;53.216;10.396;2023-04-24T00:37:45;12.70;99.90
2723;DHT22;1369;53.216;10.396;2023-04-24T00:40:11;12.70;99.90
2723;DHT22;1369;53.216;10.396;2023-04-24T00:42:37;12.70;99.90
2723;DHT22;1369;53.216;10.396;2023-04-24T00:45:04;12.80;99.90
2723;DHT22;1369;53.216;10.396;2023-04-24T00:47:30;12.80;99.90
2723;DHT22;1369;53.216;10.396;2023-04-24T00:49:56;12.90;99.90
2723;DHT22;1369;53.216;10.396;2023-04-24T00:52:22;12.90;99.90
2723;DHT22;1369;53.216;10.396;2023-04-24T00:54:49;13.00;99.90
2723;DHT22;1369;53.216;10.396;2023-04-24T00:57:15;13.10;99.90
2723;DHT22;1369;53.216;10.396;2023-04-24T00:59:41;13.10;99.90
2723;DHT22;1369;53.216;10.396;2023-04-24T01:02:08;13.10;99.90
2723;DHT22;1369;53.216;10.396;2023-04-24T01:04:35;13.10;99.90
2723;DHT22;1369;53.216;10.396;2023-04-24T01:07:00;13.10;99.90
2723;DHT22;1369;53.216;10.396;2023-04-24T01:09:26;13.10;99.90
2723;DHT22;1369;53.216;10.396;2023-04-24T01:11:52;13.10;99.90
2723;DHT22;1369;53.216;10.396;2023-04-24T01:14:18;13.10;99.90
2723;DHT22;1369;53.216;10.396;2023-04-24T01:16:43;13.10;99.90
2723;DHT22;1369;53.216;10.396;2023-04-24T01:19:10;13.10;99.90
2723;DHT22;1369;53.216;10.396;2023-04-24T01:21:37;13.00;99.90
2723;DHT22;1369;53.216;10.396;2023-04-24T01:24:06;13.00;99.90
2723;DHT22;1369;53.216;10.396;2023-04-24T01:26:33;13.00;99.90
2723;DHT22;1369;53.216;10.396;2023-04-24T01:28:59;12.90;99.90
2723;DHT22;1369;53.216;10.396;2023-04-24T01:31:24;12.80;99.90
2723;DHT22;1369;53.216;10.396;2023-04-24T01:33:51;12.70;99.90
2723;DHT22;1369;53.216;10.396;2023-04-24T01:36:16;12.70;99.90
2723;DHT22;1369;53.216;10.396;2023-04-24T01:38:42;12.60;99.90
2723;DHT22;1369;53.216;10.396;2023-04-24T01:41:07;12.50;99.90
2723;DHT22;1369;53.216;10.396;2023-04-24T01:43:33;12.50;99.90
2723;DHT22;1369;53.216;10.396;2023-04-24T01:45:59;12.40;99.90
2723;DHT22;1369;53.216;10.396;2023-04-24T01:48:24;12.40;99.90
2723;DHT22;1369;53.216;10.396;2023-04-24T01:50:50;12.30;99.90
2723;DHT22;1369;53.216;10.396;2023-04-24T01:53:16;12.30;99.90
2723;DHT22;1369;53.216;10.396;2023-04-24T01:55:41;12.20;99.90
2723;DHT22;1369;53.216;10.396;2023-04-24T01:58:07;12.20;99.90
2723;DHT22;1369;53.216;10.396;2023-04-24T02:00:33;12.20;99.90
2723;DHT22;1369;53.216;10.396;2023-04-24T02:02:58;12.20;99.90
2723;DHT22;1369;53.216;10.396;2023-04-24T02:05:24;12.20;99.90
2723;DHT22;1369;53.216;10.396;2023-04-24T02:07:49;12.20;99.90
2723;DHT22;1369;53.216;10.396;2023-04-24T02:10:15;12.10;99.90
2723;DHT22;1369;53.216;10.396;2023-04-24T02:12:40;12.10;99.90
2723;DHT22;1369;53.216;10.396;2023-04-24T02:15:06;12.10;99.90
2723;DHT22;1369;53.216;10.396;2023-04-24T02:17:32;12.10;99.90
2723;DHT22;1369;53.216;10.396;2023-04-24T02:19:57;12.10;99.90
2723;DHT22;1369;53.216;10.396;2023-04-24T02:22:23;12.00;99.90
2723;DHT22;1369;53.216;10.396;2023-04-24T02:24:48;12.00;99.90
2723;DHT22;1369;53.216;10.396;2023-04-24T02:27:14;11.90;99.90
2723;DHT22;1369;53.216;10.396;2023-04-24T02:29:40;12.00;99.90
2723;DHT22;1369;53.216;10.396;2023-04-24T02:32:05;12.00;99.90
2723;DHT22;1369;53.216;10.396;2023-04-24T02:34:30;12.00;99.90
2723;DHT22;1369;53.216;10.396;2023-04-24T02:36:56;12.00;99.90
2723;DHT22;1369;53.216;10.396;2023-04-24T02:39:22;12.00;99.90
2723;DHT22;1369;53.216;10.396;2023-04-24T02:41:47;12.00;99.90
2723;DHT22;1369;53.216;10.396;2023-04-24T02:44:13;12.00;99.90
2723;DHT22;1369;53.216;10.396;2023-04-24T02:46:38;11.90;99.90
2723;DHT22;1369;53.216;10.396;2023-04-24T02:49:04;11.90;99.90
2723;DHT22;1369;53.216;10.396;2023-04-24T02:51:29;11.90;99.90
2723;DHT22;1369;53.216;10.396;2023-04-24T02:53:55;11.90;99.90
2723;DHT22;1369;53.216;10.396;2023-04-24T02:56:20;11.90;99.90
2723;DHT22;1369;53.216;10.396;2023-04-24T02:58:46;11.90;99.90
2723;DHT22;1369;53.216;10.396;2023-04-24T03:01:11;11.90;99.90
2723;DHT22;1369;53.216;10.396;2023-04-24T03:03:38;11.90;99.90
2723;DHT22;1369;53.216;10.396;2023-04-24T03:06:03;11.80;99.90
2723;DHT22;1369;53.216;10.396;2023-04-24T03:08:31;11.80;99.90
2723;DHT22;1369;53.216;10.396;2023-04-24T03:10:57;11.80;99.90
2723;DHT22;1369;53.216;10.396;2023-04-24T03:13:22;11.80;99.90
2723;DHT22;1369;53.216;10.396;2023-04-24T03:15:48;11.80;99.90
2723;DHT22;1369;53.216;10.396;2023-04-24T03:18:13;11.70;99.90
2723;DHT22;1369;53.216;10.396;2023-04-24T03:20:39;11.70;99.90
2723;DHT22;1369;53.216;10.396;2023-04-24T03:23:04;11.70;99.90
2723;DHT22;1369;53.216;10.396;2023-04-24T03:25:30;11.70;99.90
2723;DHT22;1369;53.216;10.396;2023-04-24T03:27:55;11.60;99.90
2723;DHT22;1369;53.216;10.396;2023-04-24T03:30:21;11.60;99.90
2723;DHT22;1369;53.216;10.396;2023-04-24T03:32:46;11.50;99.90
2723;DHT22;1369;53.216;10.396;2023-04-24T03:35:12;11.50;99.90
2723;DHT22;1369;53.216;10.396;2023-04-24T03:37:37;11.50;99.90
2723;DHT22;1369;53.216;10.396;2023-04-24T03:40:03;11.50;99.90
2723;DHT22;1369;53.216;10.396;2023-04-24T03:42:29;11.40;99.90
2723;DHT22;1369;53.216;10.396;2023-04-24T03:44:54;11.30;99.90
2723;DHT22;1369;53.216;10.396;2023-04-24T03:47:20;11.30;99.90
2723;DHT22;1369;53.216;10.396;2023-04-24T03:49:48;11.30;99.90
2723;DHT22;1369;53.216;10.396;2023-04-24T03:52:14;11.20;99.90
2723;DHT22;1369;53.216;10.396;2023-04-24T03:54:39;11.20;99.90
2723;DHT22;1369;53.216;10.396;2023-04-24T03:57:05;11.20;99.90
2723;DHT22;1369;53.216;10.396;2023-04-24T03:59:31;11.10;99.90
2723;DHT22;1369;53.216;10.396;2023-04-24T04:01:56;11.10;99.90
2723;DHT22;1369;53.216;10.396;2023-04-24T04:04:22;11.10;99.90
2723;DHT22;1369;53.216;10.396;2023-04-24T04:06:47;11.10;99.90
2723;DHT22;1369;53.216;10.396;2023-04-24T04:09:13;11.10;99.90
2723;DHT22;1369;53.216;10.396;2023-04-24T04:11:38;11.10;99.90
2723;DHT22;1369;53.216;10.396;2023-04-24T04:14:04;11.00;99.90
2723;DHT22;1369;53.216;10.396;2023-04-24T04:16:30;11.00;99.90
2723;DHT22;1369;53.216;10.396;2023-04-24T04:18:56;11.00;99.90
2723;DHT22;1369;53.216;10.396;2023-04-24T04:21:21;11.00;99.90
2723;DHT22;1369;53.216;10.396;2023-04-24T04:23:47;10.90;99.90
2723;DHT22;1369;53.216;10.396;2023-04-24T04:26:13;10.90;99.90
2723;DHT22;1369;53.216;10.396;2023-04-24T04:28:38;10.90;99.90
2723;DHT22;1369;53.216;10.396;2023-04-24T04:31:04;10.90;99.90
2723;DHT22;1369;53.216;10.396;2023-04-24T04:33:30;10.90;99.90
2723;DHT22;1369;53.216;10.396;2023-04-24T04:35:56;10.90;99.90
2723;DHT22;1369;53.216;10.396;2023-04-24T04:38:22;11.00;99.90
2723;DHT22;1369;53.216;10.396;2023-04-24T04:40:48;11.00;99.90
2723;DHT22;1369;53.216;10.396;2023-04-24T04:43:14;11.00;99.90
2723;DHT22;1369;53.216;10.396;2023-04-24T04:45:41;11.00;99.90
2723;DHT22;1369;53.216;10.396;2023-04-24T04:48:08;11.00;99.90
2723;DHT22;1369;53.216;10.396;2023-04-24T04:50:34;10.90;99.90
2723;DHT22;1369;53.216;10.396;2023-04-24T04:53:00;10.90;99.90
2723;DHT22;1369;53.216;10.396;2023-04-24T04:55:25;11.00;99.90
2723;DHT22;1369;53.216;10.396;2023-04-24T04:57:51;11.00;99.90
2723;DHT22;1369;53.216;10.396;2023-04-24T05:00:17;11.00;99.90
2723;DHT22;1369;53.216;10.396;2023-04-24T05:02:42;10.90;99.90
2723;DHT22;1369;53.216;10.396;2023-04-24T05:05:08;10.90;99.90
2723;DHT22;1369;53.216;10.396;2023-04-24T05:07:34;11.00;99.90
2723;DHT22;1369;53.216;10.396;2023-04-24T05:10:00;11.00;99.90
2723;DHT22;1369;53.216;10.396;2023-04-24T05:12:25;11.00;99.90
2723;DHT22;1369;53.216;10.396;2023-04-24T05:14:51;11.10;99.90
2723;DHT22;1369;53.216;10.396;2023-04-24T05:17:17;11.10;99.90
2723;DHT22;1369;53.216;10.396;2023-04-24T05:19:42;11.10;99.90
2723;DHT22;1369;53.216;10.396;2023-04-24T05:22:08;11.10;99.90
2723;DHT22;1369;53.216;10.396;2023-04-24T05:24:35;11.10;99.90
2723;DHT22;1369;53.216;10.396;2023-04-24T05:27:01;11.20;99.90
2723;DHT22;1369;53.216;10.396;2023-04-24T05:29:28;11.20;99.90
2723;DHT22;1369;53.216;10.396;2023-04-24T05:31:56;11.30;99.90
2723;DHT22;1369;53.216;10.396;2023-04-24T05:34:21;11.40;99.90
2723;DHT22;1369;53.216;10.396;2023-04-24T05:36:47;11.60;99.90
2723;DHT22;1369;53.216;10.396;2023-04-24T05:39:13;11.70;99.90
2723;DHT22;1369;53.216;10.396;2023-04-24T05:41:38;11.80;99.90
2723;DHT22;1369;53.216;10.396;2023-04-24T05:44:04;12.00;99.90
2723;DHT22;1369;53.216;10.396;2023-04-24T05:46:29;12.30;99.90
2723;DHT22;1369;53.216;10.396;2023-04-24T05:48:55;12.40;99.90
2723;DHT22;1369;53.216;10.396;2023-04-24T05:51:20;12.50;99.90
2723;DHT22;1369;53.216;10.396;2023-04-24T05:53:46;12.50;99.90
2723;DHT22;1369;53.216;10.396;2023-04-24T05:56:11;12.60;99.90
2723;DHT22;1369;53.216;10.396;2023-04-24T05:58:37;12.70;99.90
2723;DHT22;1369;53.216;10.396;2023-04-24T06:01:03;12.60;99.90
2723;DHT22;1369;53.216;10.396;2023-04-24T06:03:28;12.80;99.90
2723;DHT22;1369;53.216;10.396;2023-04-24T06:05:54;12.90;99.90
2723;DHT22;1369;53.216;10.396;2023-04-24T06:08:20;13.00;99.90
2723;DHT22;1369;53.216;10.396;2023-04-24T06:10:46;13.10;99.90
2723;DHT22;1369;53.216;10.396;2023-04-24T06:13:11;13.10;99.90
2723;DHT22;1369;53.216;10.396;2023-04-24T06:15:37;13.10;99.90
2723;DHT22;1369;53.216;10.396;2023-04-24T06:18:03;13.20;99.90
2723;DHT22;1369;53.216;10.396;2023-04-24T06:20:29;13.10;99.90
2723;DHT22;1369;53.216;10.396;2023-04-24T06:22:54;13.10;99.90
2723;DHT22;1369;53.216;10.396;2023-04-24T06:25:20;13.20;99.90
2723;DHT22;1369;53.216;10.396;2023-04-24T06:27:45;13.90;99.90
2723;DHT22;1369;53.216;10.396;2023-04-24T06:30:11;15.10;99.90
2723;DHT22;1369;53.216;10.396;2023-04-24T06:32:37;16.50;99.90
2723;DHT22;1369;53.216;10.396;2023-04-24T06:35:03;17.20;99.90
2723;DHT22;1369;53.216;10.396;2023-04-24T06:37:29;17.60;99.90
2723;DHT22;1369;53.216;10.396;2023-04-24T06:39:55;18.10;99.90
2723;DHT22;1369;53.216;10.396;2023-04-24T06:42:20;18.30;99.90
2723;DHT22;1369;53.216;10.396;2023-04-24T06:44:47;17.90;99.90
2723;DHT22;1369;53.216;10.396;2023-04-24T06:47:12;17.50;99.90
2723;DHT22;1369;53.216;10.396;2023-04-24T06:49:39;17.50;99.90
2723;DHT22;1369;53.216;10.396;2023-04-24T06:52:05;17.40;99.90
2723;DHT22;1369;53.216;10.396;2023-04-24T06:54:31;17.00;99.90
2723;DHT22;1369;53.216;10.396;2023-04-24T06:56:56;16.70;99.90
2723;DHT22;1369;53.216;10.396;2023-04-24T06:59:29;16.20;99.90
2723;DHT22;1369;53.216;10.396;2023-04-24T07:01:55;16.10;99.90
2723;DHT22;1369;53.216;10.396;2023-04-24T07:04:21;16.10;99.90
2723;DHT22;1369;53.216;10.396;2023-04-24T07:06:47;16.30;99.90
2723;DHT22;1369;53.216;10.396;2023-04-24T07:09:13;16.90;99.90
2723;DHT22;1369;53.216;10.396;2023-04-24T07:11:39;17.60;99.90
2723;DHT22;1369;53.216;10.396;2023-04-24T07:14:06;18.30;99.90
2723;DHT22;1369;53.216;10.396;2023-04-24T07:16:31;20.10;99.90
2723;DHT22;1369;53.216;10.396;2023-04-24T07:18:57;21.50;99.90
2723;DHT22;1369;53.216;10.396;2023-04-24T07:21:22;22.60;99.90
2723;DHT22;1369;53.216;10.396;2023-04-24T07:23:48;23.80;99.90
2723;DHT22;1369;53.216;10.396;2023-04-24T07:26:13;24.30;99.90
2723;DHT22;1369;53.216;10.396;2023-04-24T07:28:40;23.80;99.90
2723;DHT22;1369;53.216;10.396;2023-04-24T07:31:08;22.40;99.90
2723;DHT22;1369;53.216;10.396;2023-04-24T07:33:34;21.20;99.90
2723;DHT22;1369;53.216;10.396;2023-04-24T07:36:01;20.10;99.90
2723;DHT22;1369;53.216;10.396;2023-04-24T07:38:28;19.30;99.90
2723;DHT22;1369;53.216;10.396;2023-04-24T07:40:54;19.00;99.90
2723;DHT22;1369;53.216;10.396;2023-04-24T07:43:20;19.10;99.90
2723;DHT22;1369;53.216;10.396;2023-04-24T07:45:46;19.70;99.90
2723;DHT22;1369;53.216;10.396;2023-04-24T07:48:12;20.10;99.90
2723;DHT22;1369;53.216;10.396;2023-04-24T07:50:40;20.20;99.90
2723;DHT22;1369;53.216;10.396;2023-04-24T07:53:05;20.10;99.90
2723;DHT22;1369;53.216;10.396;2023-04-24T07:55:31;20.00;99.90
2723;DHT22;1369;53.216;10.396;2023-04-24T07:57:57;19.80;99.90
2723;DHT22;1369;53.216;10.396;2023-04-24T08:00:23;20.30;99.90
2723;DHT22;1369;53.216;10.396;2023-04-24T08:02:49;20.60;99.90
2723;DHT22;1369;53.216;10.396;2023-04-24T08:05:14;21.90;99.90
2723;DHT22;1369;53.216;10.396;2023-04-24T08:07:40;23.60;99.90
2723;DHT22;1369;53.216;10.396;2023-04-24T08:10:09;24.50;99.90
2723;DHT22;1369;53.216;10.396;2023-04-24T08:12:36;24.90;99.90
2723;DHT22;1369;53.216;10.396;2023-04-24T08:15:02;24.70;99.90
2723;DHT22;1369;53.216;10.396;2023-04-24T08:17:27;24.30;99.90
2723;DHT22;1369;53.216;10.396;2023-04-24T08:19:53;24.40;99.90
2723;DHT22;1369;53.216;10.396;2023-04-24T08:22:24;24.60;99.90
2723;DHT22;1369;53.216;10.396;2023-04-24T08:24:49;24.10;99.90
2723;DHT22;1369;53.216;10.396;2023-04-24T08:27:15;24.30;99.90
2723;DHT22;1369;53.216;10.396;2023-04-24T08:29:40;24.60;99.60
2723;DHT22;1369;53.216;10.396;2023-04-24T08:32:06;23.60;97.70
2723;DHT22;1369;53.216;10.396;2023-04-24T08:34:32;23.10;98.80
2723;DHT22;1369;53.216;10.396;2023-04-24T08:36:57;23.30;99.30
2723;DHT22;1369;53.216;10.396;2023-04-24T08:39:23;22.40;98.20
2723;DHT22;1369;53.216;10.396;2023-04-24T08:41:48;21.50;99.40
2723;DHT22;1369;53.216;10.396;2023-04-24T08:44:16;20.60;99.30
2723;DHT22;1369;53.216;10.396;2023-04-24T08:46:43;19.70;99.50
2723;DHT22;1369;53.216;10.396;2023-04-24T08:49:11;18.80;99.90
2723;DHT22;1369;53.216;10.396;2023-04-24T08:51:37;18.40;99.90
2723;DHT22;1369;53.216;10.396;2023-04-24T08:54:04;18.10;99.90
2723;DHT22;1369;53.216;10.396;2023-04-24T08:56:30;17.90;99.90
2723;DHT22;1369;53.216;10.396;2023-04-24T08:58:58;17.90;99.90
2723;DHT22;1369;53.216;10.396;2023-04-24T09:01:25;17.90;99.90
2723;DHT22;1369;53.216;10.396;2023-04-24T09:03:51;18.10;99.90
2723;DHT22;1369;53.216;10.396;2023-04-24T09:06:19;18.70;99.90
2723;DHT22;1369;53.216;10.396;2023-04-24T09:08:47;19.10;99.90
2723;DHT22;1369;53.216;10.396;2023-04-24T09:11:14;19.40;99.90
2723;DHT22;1369;53.216;10.396;2023-04-24T09:13:40;20.00;99.90
2723;DHT22;1369;53.216;10.396;2023-04-24T09:16:06;20.80;99.90
2723;DHT22;1369;53.216;10.396;2023-04-24T09:18:32;21.10;99.90
2723;DHT22;1369;53.216;10.396;2023-04-24T09:21:03;20.80;99.90
2723;DHT22;1369;53.216;10.396;2023-04-24T09:23:31;20.40;99.90
2723;DHT22;1369;53.216;10.396;2023-04-24T09:25:57;20.00;99.90
2723;DHT22;1369;53.216;10.396;2023-04-24T09:28:26;19.50;99.90
2723;DHT22;1369;53.216;10.396;2023-04-24T09:31:06;19.00;99.90
2723;DHT22;1369;53.216;10.396;2023-04-24T09:33:32;18.80;99.90
2723;DHT22;1369;53.216;10.396;2023-04-24T09:35:59;18.40;99.90
2723;DHT22;1369;53.216;10.396;2023-04-24T09:38:36;18.00;99.90
2723;DHT22;1369;53.216;10.396;2023-04-24T09:41:06;17.70;99.90
2723;DHT22;1369;53.216;10.396;2023-04-24T09:43:32;18.10;99.90
2723;DHT22;1369;53.216;10.396;2023-04-24T09:46:04;18.80;99.90
2723;DHT22;1369;53.216;10.396;2023-04-24T09:48:34;19.40;99.90
2723;DHT22;1369;53.216;10.396;2023-04-24T09:51:01;19.40;99.90
2723;DHT22;1369;53.216;10.396;2023-04-24T09:53:30;19.10;99.90
2723;DHT22;1369;53.216;10.396;2023-04-24T09:55:56;18.80;99.90
2723;DHT22;1369;53.216;10.396;2023-04-24T09:58:27;18.40;99.90
2723;DHT22;1369;53.216;10.396;2023-04-24T10:00:54;18.10;99.90
2723;DHT22;1369;53.216;10.396;2023-04-24T10:03:23;17.90;99.90
2723;DHT22;1369;53.216;10.396;2023-04-24T10:05:48;17.80;99.90
2723;DHT22;1369;53.216;10.396;2023-04-24T10:08:14;17.70;99.90
2723;DHT22;1369;53.216;10.396;2023-04-24T10:10:42;17.80;99.90
2723;DHT22;1369;53.216;10.396;2023-04-24T10:13:14;18.00;99.90
2723;DHT22;1369;53.216;10.396;2023-04-24T10:15:41;18.20;99.90
2723;DHT22;1369;53.216;10.396;2023-04-24T10:18:08;18.40;99.90
2723;DHT22;1369;53.216;10.396;2023-04-24T10:20:35;18.80;99.90
2723;DHT22;1369;53.216;10.396;2023-04-24T10:23:02;19.40;99.90
2723;DHT22;1369;53.216;10.396;2023-04-24T10:25:30;19.90;99.90
2723;DHT22;1369;53.216;10.396;2023-04-24T10:27:57;20.20;99.90
2723;DHT22;1369;53.216;10.396;2023-04-24T10:30:26;20.10;99.90
2723;DHT22;1369;53.216;10.396;2023-04-24T10:32:52;20.10;99.90
2723;DHT22;1369;53.216;10.396;2023-04-24T10:35:18;20.40;99.90
2723;DHT22;1369;53.216;10.396;2023-04-24T10:37:56;20.40;99.90
2723;DHT22;1369;53.216;10.396;2023-04-24T10:40:33;20.40;99.90
2723;DHT22;1369;53.216;10.396;2023-04-24T10:43:01;20.00;99.90
2723;DHT22;1369;53.216;10.396;2023-04-24T10:45:27;19.50;99.90
2723;DHT22;1369;53.216;10.396;2023-04-24T10:48:00;19.00;99.90
2723;DHT22;1369;53.216;10.396;2023-04-24T10:50:47;18.70;99.90
2723;DHT22;1369;53.216;10.396;2023-04-24T10:53:24;18.30;99.90
2723;DHT22;1369;53.216;10.396;2023-04-24T10:56:09;18.20;99.90
2723;DHT22;1369;53.216;10.396;2023-04-24T10:58:49;18.10;99.90
2723;DHT22;1369;53.216;10.396;2023-04-24T11:01:41;18.20;99.90
2723;DHT22;1369;53.216;10.396;2023-04-24T11:04:29;18.50;99.90
2723;DHT22;1369;53.216;10.396;2023-04-24T11:06:55;18.60;99.90
2723;DHT22;1369;53.216;10.396;2023-04-24T11:09:22;18.70;99.90
2723;DHT22;1369;53.216;10.396;2023-04-24T11:11:47;18.90;99.90
2723;DHT22;1369;53.216;10.396;2023-04-24T11:14:16;19.10;99.90
2723;DHT22;1369;53.216;10.396;2023-04-24T11:16:45;18.90;98.50
2723;DHT22;1369;53.216;10.396;2023-04-24T11:21:47;18.70;99.90
2723;DHT22;1369;53.216;10.396;2023-04-24T11:26:55;18.70;98.90
2723;DHT22;1369;53.216;10.396;2023-04-24T11:29:21;18.60;99.30
2723;DHT22;1369;53.216;10.396;2023-04-24T11:31:47;18.60;98.60
2723;DHT22;1369;53.216;10.396;2023-04-24T11:34:15;18.40;97.50
2723;DHT22;1369;53.216;10.396;2023-04-24T11:36:45;18.20;97.70
2723;DHT22;1369;53.216;10.396;2023-04-24T11:39:11;18.00;97.60
2723;DHT22;1369;53.216;10.396;2023-04-24T11:41:37;17.90;98.10
2723;DHT22;1369;53.216;10.396;2023-04-24T11:44:05;18.00;98.30
2723;DHT22;1369;53.216;10.396;2023-04-24T11:46:31;17.90;97.90
2723;DHT22;1369;53.216;10.396;2023-04-24T11:48:58;18.00;98.60
2723;DHT22;1369;53.216;10.396;2023-04-24T11:51:25;17.90;98.80
2723;DHT22;1369;53.216;10.396;2023-04-24T11:53:52;17.90;98.70
2723;DHT22;1369;53.216;10.396;2023-04-24T11:56:18;17.90;99.60
2723;DHT22;1369;53.216;10.396;2023-04-24T11:58:45;17.80;99.80
2723;DHT22;1369;53.216;10.396;2023-04-24T12:01:12;17.70;99.40
2723;DHT22;1369;53.216;10.396;2023-04-24T12:03:37;17.60;99.90
2723;DHT22;1369;53.216;10.396;2023-04-24T12:06:07;17.40;99.80
2723;DHT22;1369;53.216;10.396;2023-04-24T12:08:33;17.20;99.90
2723;DHT22;1369;53.216;10.396;2023-04-24T12:11:01;17.10;99.90
2723;DHT22;1369;53.216;10.396;2023-04-24T12:13:26;17.20;99.90
2723;DHT22;1369;53.216;10.396;2023-04-24T12:15:52;17.20;99.90
2723;DHT22;1369;53.216;10.396;2023-04-24T12:18:18;17.40;99.90
2723;DHT22;1369;53.216;10.396;2023-04-24T12:20:43;17.50;99.90
2723;DHT22;1369;53.216;10.396;2023-04-24T12:23:09;17.50;99.90
2723;DHT22;1369;53.216;10.396;2023-04-24T12:25:35;17.50;99.90
2723;DHT22;1369;53.216;10.396;2023-04-24T12:30:35;17.50;99.90
2723;DHT22;1369;53.216;10.396;2023-04-24T12:33:02;17.60;99.90
2723;DHT22;1369;53.216;10.396;2023-04-24T12:35:30;17.60;99.90
2723;DHT22;1369;53.216;10.396;2023-04-24T12:38:08;17.80;99.90
2723;DHT22;1369;53.216;10.396;2023-04-24T12:40:33;18.00;99.90
2723;DHT22;1369;53.216;10.396;2023-04-24T12:42:59;18.20;99.90
2723;DHT22;1369;53.216;10.396;2023-04-24T12:45:25;18.20;99.90
2723;DHT22;1369;53.216;10.396;2023-04-24T12:47:50;18.10;99.90
2723;DHT22;1369;53.216;10.396;2023-04-24T12:50:16;18.00;99.90
2723;DHT22;1369;53.216;10.396;2023-04-24T12:52:42;17.60;99.90
2723;DHT22;1369;53.216;10.396;2023-04-24T12:55:08;17.30;99.90
2723;DHT22;1369;53.216;10.396;2023-04-24T12:57:35;17.00;99.90
2723;DHT22;1369;53.216;10.396;2023-04-24T13:00:01;16.80;99.90
2723;DHT22;1369;53.216;10.396;2023-04-24T13:02:29;16.60;99.90
2723;DHT22;1369;53.216;10.396;2023-04-24T13:04:56;16.60;99.90
2723;DHT22;1369;53.216;10.396;2023-04-24T13:07:21;16.50;99.90
2723;DHT22;1369;53.216;10.396;2023-04-24T13:09:48;16.40;99.90
2723;DHT22;1369;53.216;10.396;2023-04-24T13:12:14;16.30;99.90
2723;DHT22;1369;53.216;10.396;2023-04-24T13:14:40;16.20;99.90
2723;DHT22;1369;53.216;10.396;2023-04-24T13:17:06;15.90;99.90
2723;DHT22;1369;53.216;10.396;2023-04-24T13:19:40;15.80;99.90
2723;DHT22;1369;53.216;10.396;2023-04-24T13:22:06;15.70;99.90
2723;DHT22;1369;53.216;10.396;2023-04-24T13:24:33;15.70;99.90
2723;DHT22;1369;53.216;10.396;2023-04-24T13:26:59;15.70;99.90
2723;DHT22;1369;53.216;10.396;2023-04-24T13:29:25;15.80;99.90
2723;DHT22;1369;53.216;10.396;2023-04-24T13:31:51;15.90;99.90
2723;DHT22;1369;53.216;10.396;2023-04-24T13:34:17;15.90;99.90
2723;DHT22;1369;53.216;10.396;2023-04-24T13:36:43;15.90;99.90
2723;DHT22;1369;53.216;10.396;2023-04-24T13:39:09;16.00;99.90
2723;DHT22;1369;53.216;10.396;2023-04-24T13:41:34;16.00;99.90
2723;DHT22;1369;53.216;10.396;2023-04-24T13:44:01;16.10;99.90
2723;DHT22;1369;53.216;10.396;2023-04-24T13:46:27;16.30;99.90
2723;DHT22;1369;53.216;10.396;2023-04-24T13:48:52;16.70;99.90
2723;DHT22;1369;53.216;10.396;2023-04-24T13:51:18;17.00;99.90
2723;DHT22;1369;53.216;10.396;2023-04-24T13:53:43;17.30;99.90
2723;DHT22;1369;53.216;10.396;2023-04-24T13:56:10;17.30;99.90
2723;DHT22;1369;53.216;10.396;2023-04-24T13:58:36;17.20;99.90
2723;DHT22;1369;53.216;10.396;2023-04-24T14:01:04;17.10;99.90
2723;DHT22;1369;53.216;10.396;2023-04-24T14:03:29;16.60;99.90
2723;DHT22;1369;53.216;10.396;2023-04-24T14:05:55;16.50;99.90
2723;DHT22;1369;53.216;10.396;2023-04-24T14:08:20;16.30;99.90
2723;DHT22;1369;53.216;10.396;2023-04-24T14:10:46;16.10;99.90
2723;DHT22;1369;53.216;10.396;2023-04-24T14:13:12;15.90;99.90
2723;DHT22;1369;53.216;10.396;2023-04-24T14:15:37;15.80;99.90
2723;DHT22;1369;53.216;10.396;2023-04-24T14:18:03;15.80;99.90
2723;DHT22;1369;53.216;10.396;2023-04-24T14:20:29;15.80;99.90
2723;DHT22;1369;53.216;10.396;2023-04-24T14:22:54;15.80;99.90
2723;DHT22;1369;53.216;10.396;2023-04-24T14:25:20;15.80;99.90
2723;DHT22;1369;53.216;10.396;2023-04-24T14:27:47;15.80;99.90
2723;DHT22;1369;53.216;10.396;2023-04-24T14:30:13;15.70;99.90
2723;DHT22;1369;53.216;10.396;2023-04-24T14:32:39;15.70;99.90
2723;DHT22;1369;53.216;10.396;2023-04-24T14:35:06;15.70;99.90
2723;DHT22;1369;53.216;10.396;2023-04-24T14:37:32;15.80;99.90
2723;DHT22;1369;53.216;10.396;2023-04-24T14:39:58;15.90;99.90
2723;DHT22;1369;53.216;10.396;2023-04-24T14:42:23;16.00;99.90
2723;DHT22;1369;53.216;10.396;2023-04-24T14:44:49;15.50;99.90
2723;DHT22;1369;53.216;10.396;2023-04-24T14:47:15;15.20;99.90
2723;DHT22;1369;53.216;10.396;2023-04-24T14:49:43;15.00;99.90
2723;DHT22;1369;53.216;10.396;2023-04-24T14:52:09;14.80;99.90
2723;DHT22;1369;53.216;10.396;2023-04-24T14:54:35;14.70;99.90
2723;DHT22;1369;53.216;10.396;2023-04-24T14:57:00;14.70;99.90
2723;DHT22;1369;53.216;10.396;2023-04-24T14:59:27;14.60;99.90
2723;DHT22;1369;53.216;10.396;2023-04-24T15:01:53;14.50;99.90
2723;DHT22;1369;53.216;10.396;2023-04-24T15:04:25;14.30;99.90
2723;DHT22;1369;53.216;10.396;2023-04-24T15:06:52;14.30;99.90
2723;DHT22;1369;53.216;10.396;2023-04-24T15:09:19;14.00;99.90
2723;DHT22;1369;53.216;10.396;2023-04-24T15:11:45;13.90;99.90
2723;DHT22;1369;53.216;10.396;2023-04-24T15:14:10;13.80;99.90
2723;DHT22;1369;53.216;10.396;2023-04-24T15:16:36;13.80;99.90
2723;DHT22;1369;53.216;10.396;2023-04-24T15:19:01;13.40;99.90
2723;DHT22;1369;53.216;10.396;2023-04-24T15:21:27;13.50;99.90
2723;DHT22;1369;53.216;10.396;2023-04-24T15:23:53;13.50;99.90
2723;DHT22;1369;53.216;10.396;2023-04-24T15:26:18;13.60;99.90
2723;DHT22;1369;53.216;10.396;2023-04-24T15:28:44;13.70;99.90
2723;DHT22;1369;53.216;10.396;2023-04-24T15:31:12;13.70;99.90
2723;DHT22;1369;53.216;10.396;2023-04-24T15:33:37;13.60;99.90
2723;DHT22;1369;53.216;10.396;2023-04-24T15:36:03;13.60;99.90
2723;DHT22;1369;53.216;10.396;2023-04-24T15:38:28;13.60;99.90
2723;DHT22;1369;53.216;10.396;2023-04-24T15:40:54;13.70;99.90
2723;DHT22;1369;53.216;10.396;2023-04-24T15:43:19;13.70;99.90
2723;DHT22;1369;53.216;10.396;2023-04-24T15:45:45;13.70;99.90
2723;DHT22;1369;53.216;10.396;2023-04-24T15:48:10;13.60;99.90